createdAt,value
2023-02-28T00:00:26.631Z,0.43
2023-02-28T00:03:51.807Z,0.39
2023-02-28T00:07:16.946Z,0.31
2023-02-28T00:10:42.137Z,0.28
2023-02-28T00:14:07.268Z,0.27
2023-02-28T00:17:32.451Z,0.3
2023-02-28T00:20:57.627Z,0.29
2023-02-28T00:24:22.832Z,0.21
2023-02-28T00:27:48.044Z,0.13
2023-02-28T00:31:13.259Z,0.11
2023-02-28T00:34:38.327Z,0.12
2023-02-28T00:38:03.474Z,0.08
2023-02-28T00:41:28.877Z,0.07
2023-02-28T00:44:53.839Z,0.09
2023-02-28T00:48:18.985Z,0.14
2023-02-28T00:51:44.141Z,0.23
2023-02-28T00:55:09.288Z,0.3
2023-02-28T00:58:34.462Z,0.38
2023-02-28T01:01:59.636Z,0.46
2023-02-28T01:05:24.766Z,0.5
2023-02-28T01:08:49.940Z,0.53
2023-02-28T01:12:15.146Z,0.52
2023-02-28T01:15:40.300Z,0.54
2023-02-28T01:19:05.488Z,0.56
2023-02-28T01:22:30.621Z,0.6
2023-02-28T01:25:55.759Z,0.63
2023-02-28T01:29:20.915Z,0.66
2023-02-28T01:32:46.083Z,0.68
2023-02-28T01:36:11.284Z,0.7
2023-02-28T01:39:36.412Z,0.73
2023-02-28T01:43:01.548Z,0.73
2023-02-28T01:46:26.788Z,0.72
2023-02-28T01:49:51.893Z,0.68
2023-02-28T01:53:17.118Z,0.65
2023-02-28T01:56:42.228Z,0.59
2023-02-28T02:00:07.392Z,0.56
2023-02-28T02:03:32.543Z,0.56
2023-02-28T02:06:57.733Z,0.6
2023-02-28T02:10:22.953Z,0.61
2023-02-28T02:13:48.050Z,0.56
2023-02-28T02:17:13.206Z,0.5
2023-02-28T02:20:38.380Z,0.49
2023-02-28T02:24:03.549Z,0.46
2023-02-28T02:27:28.731Z,0.46
2023-02-28T02:30:53.861Z,0.44
2023-02-28T02:34:19.037Z,0.45
2023-02-28T02:37:44.232Z,0.5
2023-02-28T02:41:09.400Z,0.54
2023-02-28T02:44:34.563Z,0.55
2023-02-28T02:47:59.686Z,0.61
2023-02-28T02:51:24.846Z,0.71
2023-02-28T02:54:49.989Z,0.74
2023-02-28T02:58:15.115Z,0.76
2023-02-28T03:01:40.336Z,0.73
2023-02-28T03:05:05.457Z,0.63
2023-02-28T03:08:30.607Z,0.57
2023-02-28T03:11:55.751Z,0.53
2023-02-28T03:15:20.923Z,0.52
2023-02-28T03:18:46.120Z,0.44
2023-02-28T03:22:11.249Z,0.34
2023-02-28T03:25:36.447Z,0.31
2023-02-28T03:29:01.588Z,0.26
2023-02-28T03:32:26.759Z,0.25
2023-02-28T03:35:52.015Z,0.22
2023-02-28T03:39:17.121Z,0.21
2023-02-28T03:42:42.284Z,0.19
2023-02-28T03:46:07.471Z,0.19
2023-02-28T03:49:32.619Z,0.2
2023-02-28T03:52:57.782Z,0.16
2023-02-28T03:56:22.934Z,0.12
2023-02-28T03:59:48.109Z,0.09
2023-02-28T04:03:13.296Z,0.04
2023-02-28T04:06:38.464Z,0.02
2023-02-28T04:10:03.662Z,0
2023-02-28T04:13:28.775Z,0
2023-02-28T04:16:53.929Z,0
2023-02-28T04:20:19.091Z,0
2023-02-28T04:23:44.263Z,-0.01
2023-02-28T04:27:09.456Z,0.01
2023-02-28T04:30:34.580Z,0.04
2023-02-28T04:33:59.869Z,0.05
2023-02-28T04:37:25.152Z,-0.01
2023-02-28T04:40:50.324Z,0
2023-02-28T04:44:16.203Z,0.01
2023-02-28T04:47:41.332Z,-0.02
2023-02-28T04:51:06.483Z,-0.05
2023-02-28T04:54:31.641Z,-0.04
2023-02-28T04:57:56.807Z,-0.02
2023-02-28T05:01:22.038Z,0.02
2023-02-28T05:04:47.189Z,0.04
2023-02-28T05:08:12.354Z,0.1
2023-02-28T05:11:37.500Z,0.07
2023-02-28T05:15:02.685Z,0.04
2023-02-28T05:18:27.897Z,0.01
2023-02-28T05:21:53.022Z,0.01
2023-02-28T05:25:18.197Z,0.04
2023-02-28T05:28:43.369Z,0.07
2023-02-28T05:32:08.712Z,0.06
2023-02-28T05:35:33.767Z,0.06
2023-02-28T05:38:58.899Z,0.04
2023-02-28T05:42:24.057Z,0.05
2023-02-28T05:45:49.245Z,0.06
2023-02-28T05:49:14.388Z,0.06
2023-02-28T05:52:39.568Z,0.06
2023-02-28T05:56:04.705Z,0
2023-02-28T05:59:29.878Z,-0.05
2023-02-28T06:02:55.069Z,-0.09
2023-02-28T06:06:20.251Z,-0.09
2023-02-28T06:09:45.441Z,-0.08
2023-02-28T06:13:10.571Z,-0.1
2023-02-28T06:16:35.793Z,-0.11
2023-02-28T06:20:00.897Z,-0.11
2023-02-28T06:23:26.078Z,-0.11
2023-02-28T06:26:51.303Z,-0.11
2023-02-28T06:30:16.410Z,-0.14
2023-02-28T06:33:41.592Z,-0.19
2023-02-28T06:37:06.757Z,-0.19
2023-02-28T06:40:31.913Z,-0.15
2023-02-28T06:43:57.276Z,-0.12
2023-02-28T06:47:22.285Z,-0.16
2023-02-28T06:50:47.476Z,-0.2
2023-02-28T06:54:12.664Z,-0.18
2023-02-28T06:57:37.930Z,-0.19
2023-02-28T07:01:03.165Z,-0.18
2023-02-28T07:04:28.285Z,-0.16
2023-02-28T07:07:53.448Z,-0.07
2023-02-28T07:11:18.645Z,0.07
2023-02-28T07:14:43.809Z,0.14
2023-02-28T07:18:09.038Z,0.15
2023-02-28T07:21:34.184Z,0.12
2023-02-28T07:24:59.374Z,0.39
2023-02-28T07:28:24.541Z,0.69
2023-02-28T07:31:49.754Z,0.87
2023-02-28T07:35:14.931Z,0.92
2023-02-28T07:38:40.086Z,0.82
2023-02-28T07:42:05.294Z,0.69
2023-02-28T07:45:30.510Z,0.59
2023-02-28T07:48:55.680Z,0.5
2023-02-28T07:52:20.903Z,0.47
2023-02-28T07:55:46.129Z,0.46
2023-02-28T07:59:11.362Z,0.52
2023-02-28T08:02:36.541Z,0.67
2023-02-28T08:06:01.689Z,0.79
2023-02-28T08:09:26.907Z,0.89
2023-02-28T08:12:52.031Z,0.96
2023-02-28T08:16:17.267Z,1.04
2023-02-28T08:19:42.428Z,1.11
2023-02-28T08:23:07.624Z,1.17
2023-02-28T08:26:32.829Z,1.29
2023-02-28T08:29:57.960Z,1.42
2023-02-28T08:33:23.151Z,1.46
2023-02-28T08:36:48.314Z,1.46
2023-02-28T08:40:13.535Z,1.46
2023-02-28T08:43:38.752Z,1.52
2023-02-28T08:47:03.898Z,1.54
2023-02-28T08:50:29.090Z,1.56
2023-02-28T08:53:54.228Z,1.58
2023-02-28T08:57:19.421Z,1.58
2023-02-28T09:00:44.662Z,1.58
2023-02-28T09:04:09.799Z,1.63
2023-02-28T09:07:35.056Z,1.69
2023-02-28T09:11:01.625Z,1.67
2023-02-28T09:14:25.437Z,1.67
2023-02-28T09:17:50.637Z,1.65
2023-02-28T09:21:15.811Z,1.68
2023-02-28T09:28:06.191Z,1.8
2023-02-28T09:31:31.364Z,1.86
2023-02-28T09:34:56.608Z,1.92
2023-02-28T09:38:21.752Z,2.01
2023-02-28T09:41:46.942Z,2.09
2023-02-28T09:45:12.136Z,2.03
2023-02-28T09:48:38.950Z,1.96
2023-02-28T09:52:02.535Z,1.85
2023-02-28T09:55:28.897Z,1.82
2023-02-28T09:58:52.814Z,1.67
2023-02-28T10:02:17.990Z,1.48
2023-02-28T10:05:44.338Z,1.32
2023-02-28T10:09:08.369Z,1.23
2023-02-28T10:12:33.496Z,1.19
2023-02-28T10:15:58.919Z,1.37
2023-02-28T10:19:24.074Z,1.46
2023-02-28T10:22:49.242Z,1.56
2023-02-28T10:26:14.428Z,1.69
2023-02-28T10:29:39.589Z,1.8
2023-02-28T10:33:04.822Z,1.9
2023-02-28T10:36:30.267Z,2.07
2023-02-28T10:39:55.091Z,2.23
2023-02-28T10:43:20.274Z,2.38
2023-02-28T10:46:45.427Z,2.5
2023-02-28T10:50:10.584Z,2.57
2023-02-28T10:53:41.770Z,2.61
2023-02-28T10:57:00.885Z,2.71
2023-02-28T11:00:26.088Z,2.84
2023-02-28T11:03:51.250Z,2.96
2023-02-28T11:07:16.411Z,3.11
2023-02-28T11:10:41.561Z,3.26
2023-02-28T11:14:06.710Z,3.49
2023-02-28T11:17:31.903Z,3.61
2023-02-28T11:20:57.038Z,3.72
2023-02-28T11:24:22.190Z,3.78
2023-02-28T11:27:47.371Z,3.86
2023-02-28T11:31:12.613Z,3.91
2023-02-28T11:34:37.755Z,3.96
2023-02-28T11:38:02.877Z,3.99
2023-02-28T11:41:28.387Z,4
2023-02-28T11:44:53.228Z,4.03
2023-02-28T11:48:18.378Z,4.03
2023-02-28T11:51:43.632Z,4.07
2023-02-28T11:55:08.777Z,4.11
2023-02-28T11:58:33.933Z,4.12
2023-02-28T12:01:59.157Z,4.15
2023-02-28T12:05:24.291Z,4.24
2023-02-28T12:08:49.466Z,4.27
2023-02-28T12:12:14.862Z,4.24
2023-02-28T12:15:40.057Z,4.22
2023-02-28T12:19:05.228Z,4.26
2023-02-28T12:22:30.541Z,4.24
2023-02-28T12:25:55.737Z,4.21
2023-02-28T12:29:20.899Z,4.3
2023-02-28T12:32:46.109Z,4.38
2023-02-28T12:36:11.369Z,4.41
2023-02-28T12:39:45.158Z,4.3
2023-02-28T12:43:01.693Z,4.13
2023-02-28T12:46:27.029Z,4.07
2023-02-28T12:49:52.057Z,4.05
2023-02-28T12:53:17.232Z,4.01
2023-02-28T12:56:42.466Z,3.98
2023-02-28T13:00:07.636Z,3.95
2023-02-28T13:03:32.801Z,3.93
2023-02-28T13:06:57.944Z,3.94
2023-02-28T13:10:23.107Z,3.93
2023-02-28T13:13:48.263Z,3.96
2023-02-28T13:17:13.639Z,3.98
2023-02-28T13:20:38.889Z,4.02
2023-02-28T13:24:04.226Z,4.03
2023-02-28T13:27:29.555Z,4.07
2023-02-28T13:30:54.917Z,4.12
2023-02-28T13:34:20.327Z,4.05
2023-02-28T13:37:45.656Z,4.03
2023-02-28T13:41:11.026Z,4
2023-02-28T13:44:36.413Z,3.97
2023-02-28T13:48:01.715Z,3.97
2023-02-28T13:51:27.390Z,3.95
2023-02-28T13:54:52.337Z,3.97
2023-02-28T13:58:18.871Z,4
2023-02-28T14:01:43.418Z,4.07
2023-02-28T14:05:08.683Z,4.1
2023-02-28T14:08:34.032Z,4.08
2023-02-28T14:12:00.108Z,4.04
2023-02-28T14:15:25.752Z,4.08
2023-02-28T14:18:51.128Z,4.15
2023-02-28T14:22:16.417Z,4.21
2023-02-28T14:25:41.774Z,4.27
2023-02-28T14:29:07.060Z,4.3
2023-02-28T15:04:37.088Z,1.47
2023-02-28T15:08:02.345Z,2.43
2023-02-28T15:11:28.126Z,2.63
2023-02-28T15:14:53.012Z,2.75
2023-02-28T15:18:18.326Z,2.88
2023-02-28T15:21:43.649Z,2.97
2023-02-28T15:25:09.053Z,3.01
2023-02-28T15:28:34.461Z,3.04
2023-02-28T15:31:59.893Z,3.06
2023-02-28T15:35:25.034Z,3.06
2023-02-28T15:38:50.402Z,3.08
2023-02-28T15:42:15.680Z,3.11
2023-02-28T15:45:41.079Z,3.13
2023-02-28T15:49:06.469Z,3.15
2023-02-28T15:52:31.813Z,3.17
2023-02-28T15:55:57.155Z,3.22
2023-02-28T15:59:22.483Z,3.25
2023-02-28T16:02:48.599Z,3.23
2023-02-28T16:06:13.870Z,3.19
2023-02-28T16:09:39.210Z,3.17
2023-02-28T16:13:04.521Z,3.13
2023-02-28T16:16:29.786Z,3.05
2023-02-28T16:19:55.259Z,2.97
2023-02-28T16:23:21.297Z,2.92
2023-02-28T16:26:46.583Z,2.87
2023-02-28T16:30:11.923Z,2.82
2023-02-28T16:33:37.321Z,2.79
2023-02-28T16:37:02.644Z,2.75
2023-02-28T16:40:27.997Z,2.71
2023-02-28T16:43:53.651Z,2.66
2023-02-28T16:47:19.106Z,2.6
2023-02-28T16:50:45.176Z,2.56
2023-02-28T16:54:10.516Z,2.52
2023-02-28T16:57:35.770Z,2.45
2023-02-28T17:01:01.074Z,2.44
2023-02-28T17:04:26.348Z,2.43
2023-02-28T17:07:51.637Z,2.42
2023-02-28T17:11:16.922Z,2.37
2023-02-28T17:14:42.209Z,2.33
2023-02-28T17:18:07.496Z,2.29
2023-02-28T17:21:32.843Z,2.24
2023-02-28T17:24:58.106Z,2.18
2023-02-28T17:28:23.390Z,2.17
2023-02-28T17:31:48.731Z,2.14
2023-02-28T17:35:13.980Z,2.17
2023-02-28T17:38:39.324Z,2.15
2023-02-28T17:42:04.593Z,2.16
2023-02-28T17:45:29.865Z,2.14
2023-02-28T17:48:55.113Z,2.09
2023-02-28T17:52:20.444Z,2.02
2023-02-28T17:55:45.779Z,1.98
2023-02-28T17:59:11.081Z,1.99
2023-02-28T18:02:36.515Z,1.95
2023-02-28T18:06:01.850Z,1.92
2023-02-28T18:09:27.204Z,1.88
2023-02-28T18:12:52.622Z,1.86
2023-02-28T18:16:18.056Z,1.85
2023-02-28T18:19:43.341Z,1.86
2023-02-28T18:23:08.703Z,1.86
2023-02-28T18:26:34.064Z,1.88
2023-02-28T18:29:59.493Z,1.93
2023-02-28T18:33:24.877Z,1.96
2023-02-28T18:36:50.208Z,1.95
2023-02-28T18:40:15.509Z,1.91
2023-02-28T18:43:40.848Z,1.89
2023-02-28T18:47:06.163Z,1.88
2023-02-28T18:50:31.484Z,1.9
2023-02-28T18:53:56.773Z,1.86
2023-02-28T18:57:22.072Z,1.84
2023-02-28T19:00:47.435Z,1.84
2023-02-28T19:04:12.770Z,1.84
2023-02-28T19:07:38.029Z,1.85
2023-02-28T19:11:03.339Z,1.84
2023-02-28T19:14:28.675Z,1.85
2023-02-28T19:17:53.969Z,1.8
2023-02-28T19:21:19.306Z,1.79
2023-02-28T19:24:44.602Z,1.77
2023-02-28T19:28:09.910Z,1.76
2023-02-28T19:31:35.260Z,1.8
2023-02-28T19:35:00.557Z,1.82
2023-02-28T19:38:25.856Z,1.87
2023-02-28T19:41:51.117Z,1.9
2023-02-28T19:45:16.387Z,1.91
2023-02-28T19:48:41.677Z,1.91
2023-02-28T19:52:07.932Z,1.87
2023-02-28T19:55:32.300Z,1.85
2023-02-28T19:58:57.582Z,1.84
2023-02-28T20:02:22.915Z,1.84
2023-02-28T20:05:48.234Z,1.88
2023-02-28T20:09:13.537Z,1.9
2023-02-28T20:12:38.903Z,1.94
2023-02-28T20:16:04.173Z,1.94
2023-02-28T20:19:29.509Z,1.98
2023-02-28T20:22:55.716Z,2.01
2023-02-28T20:26:21.048Z,2.03
2023-02-28T20:29:46.392Z,2.05
2023-02-28T20:33:11.716Z,2.05
2023-02-28T20:36:36.991Z,2.03
2023-02-28T20:40:02.312Z,1.99
2023-02-28T20:43:27.641Z,1.98
2023-02-28T20:46:52.942Z,1.96
2023-02-28T20:50:18.227Z,1.96
2023-02-28T20:53:43.531Z,1.94
2023-02-28T20:57:08.832Z,1.89
2023-02-28T21:00:34.066Z,1.86
2023-02-28T21:03:59.256Z,1.83
2023-02-28T21:07:24.401Z,1.82
2023-02-28T21:10:49.574Z,1.8
2023-02-28T21:14:14.710Z,1.79
2023-02-28T21:17:39.911Z,1.76
2023-02-28T21:21:05.102Z,1.74
2023-02-28T21:24:30.249Z,1.73
2023-02-28T21:27:55.424Z,1.69
2023-02-28T21:31:20.632Z,1.64
2023-02-28T21:34:46.439Z,1.67
2023-02-28T21:38:11.643Z,1.7
2023-02-28T21:41:36.744Z,1.72
2023-02-28T21:45:01.972Z,1.7
2023-02-28T21:48:27.074Z,1.65
2023-02-28T21:51:52.275Z,1.61
2023-02-28T21:55:17.444Z,1.57
2023-02-28T21:58:42.594Z,1.57
2023-02-28T22:02:07.739Z,1.57
2023-02-28T22:05:32.891Z,1.59
2023-02-28T22:08:58.064Z,1.59
2023-02-28T22:12:23.246Z,1.58
2023-02-28T22:15:48.406Z,1.56
2023-02-28T22:19:13.512Z,1.53
2023-02-28T22:22:38.737Z,1.48
2023-02-28T22:26:03.907Z,1.39
2023-02-28T22:29:29.108Z,1.3
2023-02-28T22:32:54.306Z,1.27
2023-02-28T22:36:19.472Z,1.26
2023-02-28T22:39:45.755Z,1.26
2023-02-28T22:43:09.774Z,1.25
2023-02-28T22:46:35.511Z,1.17
2023-02-28T22:50:00.127Z,1.12
2023-02-28T22:53:25.245Z,1.11
2023-02-28T22:56:50.404Z,1.11
2023-02-28T23:00:15.592Z,1.1
2023-02-28T23:03:40.842Z,1.14
2023-02-28T23:07:05.904Z,1.17
2023-02-28T23:10:31.110Z,1.19
2023-02-28T23:13:56.308Z,1.22
2023-02-28T23:17:21.454Z,1.17
2023-02-28T23:20:46.615Z,1.12
2023-02-28T23:24:11.801Z,1.12
2023-02-28T23:27:36.905Z,1.13
2023-02-28T23:31:02.073Z,1.11
2023-02-28T23:34:27.266Z,1.11
2023-02-28T23:37:52.447Z,1.13
2023-02-28T23:41:17.563Z,1.11
2023-02-28T23:44:42.768Z,1.1
2023-02-28T23:48:07.945Z,1.09
2023-02-28T23:51:33.102Z,1.11
2023-02-28T23:54:58.300Z,1.14
2023-02-28T23:58:23.454Z,1.15
